sensor_id;sensor_type;location;lat;lon;timestamp;P1;durP1;ratioP1;P2;durP2;ratioP2
69912;SDS011;57198;52.082;5.108;2022-10-22T00:00:48;5.95;;;3.40;;
69912;SDS011;57198;52.082;5.108;2022-10-22T00:03:15;6.23;;;3.30;;
69912;SDS011;57198;52.082;5.108;2022-10-22T00:05:43;5.05;;;2.83;;
69912;SDS011;57198;52.082;5.108;2022-10-22T00:08:10;6.20;;;3.05;;
69912;SDS011;57198;52.082;5.108;2022-10-22T00:10:37;6.15;;;2.75;;
69912;SDS011;57198;52.082;5.108;2022-10-22T00:13:04;8.07;;;3.05;;
69912;SDS011;57198;52.082;5.108;2022-10-22T00:15:32;6.20;;;3.00;;
69912;SDS011;57198;52.082;5.108;2022-10-22T00:17:59;9.38;;;3.35;;
69912;SDS011;57198;52.082;5.108;2022-10-22T00:20:26;5.97;;;3.72;;
69912;SDS011;57198;52.082;5.108;2022-10-22T00:22:54;4.13;;;3.30;;
69912;SDS011;57198;52.082;5.108;2022-10-22T00:25:21;5.85;;;3.10;;
69912;SDS011;57198;52.082;5.108;2022-10-22T00:27:48;5.03;;;3.10;;
69912;SDS011;57198;52.082;5.108;2022-10-22T00:30:15;5.60;;;2.63;;
69912;SDS011;57198;52.082;5.108;2022-10-22T00:32:43;6.22;;;2.80;;
69912;SDS011;57198;52.082;5.108;2022-10-22T00:35:10;5.72;;;3.45;;
69912;SDS011;57198;52.082;5.108;2022-10-22T00:37:37;7.57;;;3.70;;
69912;SDS011;57198;52.082;5.108;2022-10-22T00:40:05;4.43;;;3.27;;
69912;SDS011;57198;52.082;5.108;2022-10-22T00:42:32;5.03;;;3.28;;
69912;SDS011;57198;52.082;5.108;2022-10-22T00:47:37;5.07;;;3.38;;
69912;SDS011;57198;52.082;5.108;2022-10-22T00:50:07;8.95;;;3.50;;
69912;SDS011;57198;52.082;5.108;2022-10-22T00:52:35;8.00;;;3.67;;
69912;SDS011;57198;52.082;5.108;2022-10-22T00:55:03;8.48;;;4.05;;
69912;SDS011;57198;52.082;5.108;2022-10-22T00:57:30;5.88;;;3.20;;
69912;SDS011;57198;52.082;5.108;2022-10-22T00:59:58;5.63;;;3.60;;
69912;SDS011;57198;52.082;5.108;2022-10-22T01:02:25;7.50;;;4.15;;
69912;SDS011;57198;52.082;5.108;2022-10-22T01:04:53;4.57;;;3.33;;
69912;SDS011;57198;52.082;5.108;2022-10-22T01:07:21;6.50;;;3.78;;
69912;SDS011;57198;52.082;5.108;2022-10-22T01:09:59;7.85;;;4.30;;
69912;SDS011;57198;52.082;5.108;2022-10-22T01:12:46;7.95;;;4.32;;
69912;SDS011;57198;52.082;5.108;2022-10-22T01:15:28;6.35;;;3.75;;
69912;SDS011;57198;52.082;5.108;2022-10-22T01:18:08;5.70;;;3.57;;
69912;SDS011;57198;52.082;5.108;2022-10-22T01:31:22;12.03;;;4.40;;
69912;SDS011;57198;52.082;5.108;2022-10-22T01:33:52;7.47;;;3.65;;
69912;SDS011;57198;52.082;5.108;2022-10-22T01:36:20;10.07;;;4.47;;
69912;SDS011;57198;52.082;5.108;2022-10-22T01:38:48;6.68;;;3.60;;
69912;SDS011;57198;52.082;5.108;2022-10-22T01:41:15;8.48;;;3.83;;
69912;SDS011;57198;52.082;5.108;2022-10-22T01:43:43;6.87;;;3.70;;
69912;SDS011;57198;52.082;5.108;2022-10-22T01:46:10;7.75;;;4.40;;
69912;SDS011;57198;52.082;5.108;2022-10-22T01:51:12;8.20;;;3.88;;
69912;SDS011;57198;52.082;5.108;2022-10-22T01:54:02;7.07;;;3.65;;
69912;SDS011;57198;52.082;5.108;2022-10-22T02:04:28;6.32;;;3.58;;
69912;SDS011;57198;52.082;5.108;2022-10-22T02:06:58;14.82;;;3.90;;
69912;SDS011;57198;52.082;5.108;2022-10-22T02:09:27;8.63;;;3.00;;
69912;SDS011;57198;52.082;5.108;2022-10-22T02:11:55;7.40;;;3.78;;
69912;SDS011;57198;52.082;5.108;2022-10-22T02:14:26;5.78;;;3.70;;
69912;SDS011;57198;52.082;5.108;2022-10-22T02:16:54;7.88;;;3.78;;
69912;SDS011;57198;52.082;5.108;2022-10-22T02:19:27;9.88;;;3.67;;
69912;SDS011;57198;52.082;5.108;2022-10-22T02:21:54;10.10;;;3.60;;
69912;SDS011;57198;52.082;5.108;2022-10-22T02:24:21;12.68;;;4.63;;
69912;SDS011;57198;52.082;5.108;2022-10-22T02:29:25;6.25;;;3.60;;
69912;SDS011;57198;52.082;5.108;2022-10-22T02:31:54;7.18;;;3.70;;
69912;SDS011;57198;52.082;5.108;2022-10-22T02:34:23;6.30;;;4.20;;
69912;SDS011;57198;52.082;5.108;2022-10-22T02:36:51;16.33;;;4.22;;
69912;SDS011;57198;52.082;5.108;2022-10-22T02:39:20;9.32;;;3.92;;
69912;SDS011;57198;52.082;5.108;2022-10-22T02:41:47;9.65;;;3.97;;
69912;SDS011;57198;52.082;5.108;2022-10-22T02:44:15;10.75;;;3.67;;
69912;SDS011;57198;52.082;5.108;2022-10-22T02:46:46;9.13;;;4.47;;
69912;SDS011;57198;52.082;5.108;2022-10-22T02:49:13;10.73;;;3.75;;
69912;SDS011;57198;52.082;5.108;2022-10-22T02:51:40;7.28;;;3.53;;
69912;SDS011;57198;52.082;5.108;2022-10-22T02:54:07;9.07;;;3.95;;
69912;SDS011;57198;52.082;5.108;2022-10-22T02:56:35;7.00;;;4.20;;
69912;SDS011;57198;52.082;5.108;2022-10-22T02:59:02;9.00;;;3.97;;
69912;SDS011;57198;52.082;5.108;2022-10-22T03:01:30;7.95;;;3.33;;
69912;SDS011;57198;52.082;5.108;2022-10-22T03:03:57;12.65;;;3.55;;
69912;SDS011;57198;52.082;5.108;2022-10-22T03:06:24;8.68;;;3.53;;
69912;SDS011;57198;52.082;5.108;2022-10-22T03:08:52;9.65;;;3.53;;
69912;SDS011;57198;52.082;5.108;2022-10-22T03:11:20;7.10;;;4.10;;
69912;SDS011;57198;52.082;5.108;2022-10-22T03:13:47;6.40;;;3.72;;
69912;SDS011;57198;52.082;5.108;2022-10-22T03:16:14;7.13;;;3.17;;
69912;SDS011;57198;52.082;5.108;2022-10-22T03:18:41;6.00;;;3.45;;
69912;SDS011;57198;52.082;5.108;2022-10-22T03:21:10;6.05;;;3.63;;
69912;SDS011;57198;52.082;5.108;2022-10-22T03:23:39;10.23;;;3.70;;
69912;SDS011;57198;52.082;5.108;2022-10-22T03:26:08;8.15;;;4.03;;
69912;SDS011;57198;52.082;5.108;2022-10-22T03:28:36;6.65;;;3.40;;
69912;SDS011;57198;52.082;5.108;2022-10-22T03:31:03;6.47;;;3.58;;
69912;SDS011;57198;52.082;5.108;2022-10-22T03:33:31;8.23;;;3.38;;
69912;SDS011;57198;52.082;5.108;2022-10-22T03:35:58;8.63;;;4.07;;
69912;SDS011;57198;52.082;5.108;2022-10-22T03:38:26;9.65;;;4.30;;
69912;SDS011;57198;52.082;5.108;2022-10-22T03:40:54;9.05;;;3.75;;
69912;SDS011;57198;52.082;5.108;2022-10-22T03:43:21;7.25;;;3.65;;
69912;SDS011;57198;52.082;5.108;2022-10-22T03:45:49;6.28;;;3.70;;
69912;SDS011;57198;52.082;5.108;2022-10-22T03:48:16;9.43;;;4.03;;
69912;SDS011;57198;52.082;5.108;2022-10-22T03:50:43;7.40;;;4.07;;
69912;SDS011;57198;52.082;5.108;2022-10-22T03:53:11;9.05;;;3.95;;
69912;SDS011;57198;52.082;5.108;2022-10-22T03:55:39;11.32;;;3.88;;
69912;SDS011;57198;52.082;5.108;2022-10-22T03:58:06;10.40;;;3.97;;
69912;SDS011;57198;52.082;5.108;2022-10-22T04:00:34;8.77;;;3.80;;
69912;SDS011;57198;52.082;5.108;2022-10-22T04:03:01;6.15;;;3.97;;
69912;SDS011;57198;52.082;5.108;2022-10-22T04:05:30;10.25;;;3.60;;
69912;SDS011;57198;52.082;5.108;2022-10-22T04:07:58;10.13;;;3.95;;
69912;SDS011;57198;52.082;5.108;2022-10-22T04:10:26;6.35;;;3.47;;
69912;SDS011;57198;52.082;5.108;2022-10-22T04:12:53;7.10;;;3.67;;
69912;SDS011;57198;52.082;5.108;2022-10-22T04:15:20;11.13;;;3.50;;
69912;SDS011;57198;52.082;5.108;2022-10-22T04:17:48;9.95;;;3.80;;
69912;SDS011;57198;52.082;5.108;2022-10-22T04:20:15;10.02;;;4.00;;
69912;SDS011;57198;52.082;5.108;2022-10-22T04:22:42;13.07;;;3.42;;
69912;SDS011;57198;52.082;5.108;2022-10-22T04:25:09;8.47;;;3.40;;
69912;SDS011;57198;52.082;5.108;2022-10-22T04:27:37;7.68;;;3.45;;
69912;SDS011;57198;52.082;5.108;2022-10-22T04:30:05;7.93;;;3.03;;
69912;SDS011;57198;52.082;5.108;2022-10-22T04:32:32;13.57;;;3.47;;
69912;SDS011;57198;52.082;5.108;2022-10-22T04:34:59;8.60;;;3.55;;
69912;SDS011;57198;52.082;5.108;2022-10-22T04:37:27;9.43;;;3.67;;
69912;SDS011;57198;52.082;5.108;2022-10-22T04:39:54;7.97;;;3.15;;
69912;SDS011;57198;52.082;5.108;2022-10-22T04:42:23;13.57;;;3.80;;
69912;SDS011;57198;52.082;5.108;2022-10-22T04:44:51;7.15;;;3.55;;
69912;SDS011;57198;52.082;5.108;2022-10-22T04:47:18;11.10;;;3.20;;
69912;SDS011;57198;52.082;5.108;2022-10-22T04:49:45;11.33;;;3.50;;
69912;SDS011;57198;52.082;5.108;2022-10-22T04:52:12;7.00;;;2.85;;
69912;SDS011;57198;52.082;5.108;2022-10-22T04:54:40;5.15;;;3.13;;
69912;SDS011;57198;52.082;5.108;2022-10-22T04:57:07;5.50;;;3.38;;
69912;SDS011;57198;52.082;5.108;2022-10-22T04:59:34;8.45;;;2.95;;
69912;SDS011;57198;52.082;5.108;2022-10-22T05:02:01;4.53;;;3.07;;
69912;SDS011;57198;52.082;5.108;2022-10-22T05:04:29;8.05;;;3.75;;
69912;SDS011;57198;52.082;5.108;2022-10-22T05:06:56;6.72;;;2.47;;
69912;SDS011;57198;52.082;5.108;2022-10-22T05:09:24;7.57;;;3.25;;
69912;SDS011;57198;52.082;5.108;2022-10-22T05:11:51;7.07;;;2.90;;
69912;SDS011;57198;52.082;5.108;2022-10-22T05:14:19;8.37;;;3.10;;
69912;SDS011;57198;52.082;5.108;2022-10-22T05:16:47;10.43;;;3.38;;
69912;SDS011;57198;52.082;5.108;2022-10-22T05:19:23;8.13;;;3.08;;
69912;SDS011;57198;52.082;5.108;2022-10-22T05:21:52;11.45;;;3.55;;
69912;SDS011;57198;52.082;5.108;2022-10-22T05:24:19;7.28;;;3.38;;
69912;SDS011;57198;52.082;5.108;2022-10-22T05:26:56;8.73;;;2.40;;
69912;SDS011;57198;52.082;5.108;2022-10-22T05:29:23;8.00;;;3.10;;
69912;SDS011;57198;52.082;5.108;2022-10-22T05:31:51;7.28;;;2.75;;
69912;SDS011;57198;52.082;5.108;2022-10-22T05:34:18;9.73;;;3.30;;
69912;SDS011;57198;52.082;5.108;2022-10-22T05:36:45;9.48;;;3.00;;
69912;SDS011;57198;52.082;5.108;2022-10-22T05:39:13;7.67;;;2.70;;
69912;SDS011;57198;52.082;5.108;2022-10-22T05:41:40;11.48;;;2.70;;
69912;SDS011;57198;52.082;5.108;2022-10-22T05:44:09;7.70;;;2.75;;
69912;SDS011;57198;52.082;5.108;2022-10-22T05:46:37;6.18;;;2.83;;
69912;SDS011;57198;52.082;5.108;2022-10-22T05:49:05;7.57;;;2.97;;
69912;SDS011;57198;52.082;5.108;2022-10-22T05:51:33;9.07;;;3.33;;
69912;SDS011;57198;52.082;5.108;2022-10-22T05:54:02;9.93;;;3.10;;
69912;SDS011;57198;52.082;5.108;2022-10-22T05:56:30;9.07;;;2.92;;
69912;SDS011;57198;52.082;5.108;2022-10-22T05:58:58;7.22;;;2.80;;
69912;SDS011;57198;52.082;5.108;2022-10-22T06:01:26;13.15;;;2.97;;
69912;SDS011;57198;52.082;5.108;2022-10-22T06:03:55;7.20;;;2.60;;
69912;SDS011;57198;52.082;5.108;2022-10-22T06:06:27;6.63;;;3.08;;
69912;SDS011;57198;52.082;5.108;2022-10-22T06:08:58;5.70;;;2.83;;
69912;SDS011;57198;52.082;5.108;2022-10-22T06:11:27;6.70;;;3.03;;
69912;SDS011;57198;52.082;5.108;2022-10-22T06:14:00;5.90;;;3.13;;
69912;SDS011;57198;52.082;5.108;2022-10-22T06:16:28;8.03;;;2.80;;
69912;SDS011;57198;52.082;5.108;2022-10-22T06:18:57;6.88;;;2.95;;
69912;SDS011;57198;52.082;5.108;2022-10-22T06:21:26;8.48;;;3.47;;
69912;SDS011;57198;52.082;5.108;2022-10-22T06:23:57;9.95;;;3.70;;
69912;SDS011;57198;52.082;5.108;2022-10-22T06:26:25;7.20;;;3.28;;
69912;SDS011;57198;52.082;5.108;2022-10-22T06:28:53;9.40;;;3.57;;
69912;SDS011;57198;52.082;5.108;2022-10-22T06:31:21;8.77;;;3.15;;
69912;SDS011;57198;52.082;5.108;2022-10-22T06:33:48;5.80;;;2.97;;
69912;SDS011;57198;52.082;5.108;2022-10-22T06:36:20;9.75;;;3.20;;
69912;SDS011;57198;52.082;5.108;2022-10-22T06:38:54;7.22;;;2.75;;
69912;SDS011;57198;52.082;5.108;2022-10-22T06:41:22;5.60;;;2.93;;
69912;SDS011;57198;52.082;5.108;2022-10-22T06:43:54;10.82;;;3.17;;
69912;SDS011;57198;52.082;5.108;2022-10-22T06:46:23;7.30;;;2.92;;
69912;SDS011;57198;52.082;5.108;2022-10-22T06:48:58;10.55;;;3.30;;
69912;SDS011;57198;52.082;5.108;2022-10-22T06:51:26;10.57;;;3.55;;
69912;SDS011;57198;52.082;5.108;2022-10-22T06:53:54;9.50;;;3.57;;
69912;SDS011;57198;52.082;5.108;2022-10-22T06:56:22;6.55;;;2.85;;
69912;SDS011;57198;52.082;5.108;2022-10-22T06:58:51;8.32;;;3.00;;
69912;SDS011;57198;52.082;5.108;2022-10-22T07:01:20;13.23;;;3.45;;
69912;SDS011;57198;52.082;5.108;2022-10-22T07:03:51;8.85;;;2.95;;
69912;SDS011;57198;52.082;5.108;2022-10-22T07:06:19;10.03;;;2.97;;
69912;SDS011;57198;52.082;5.108;2022-10-22T07:08:47;8.80;;;2.60;;
69912;SDS011;57198;52.082;5.108;2022-10-22T07:11:15;6.30;;;2.70;;
69912;SDS011;57198;52.082;5.108;2022-10-22T07:13:43;9.93;;;3.20;;
69912;SDS011;57198;52.082;5.108;2022-10-22T07:16:10;5.60;;;2.80;;
69912;SDS011;57198;52.082;5.108;2022-10-22T07:18:38;10.67;;;3.03;;
69912;SDS011;57198;52.082;5.108;2022-10-22T07:21:06;8.98;;;2.88;;
69912;SDS011;57198;52.082;5.108;2022-10-22T07:23:34;7.93;;;3.38;;
69912;SDS011;57198;52.082;5.108;2022-10-22T07:26:02;7.70;;;2.65;;
69912;SDS011;57198;52.082;5.108;2022-10-22T07:28:29;6.95;;;2.63;;
69912;SDS011;57198;52.082;5.108;2022-10-22T07:30:58;10.40;;;2.70;;
69912;SDS011;57198;52.082;5.108;2022-10-22T07:33:26;10.90;;;3.20;;
69912;SDS011;57198;52.082;5.108;2022-10-22T07:35:57;6.97;;;2.45;;
69912;SDS011;57198;52.082;5.108;2022-10-22T07:38:25;7.63;;;3.00;;
69912;SDS011;57198;52.082;5.108;2022-10-22T07:40:52;11.38;;;2.78;;
69912;SDS011;57198;52.082;5.108;2022-10-22T07:43:20;9.33;;;3.20;;
69912;SDS011;57198;52.082;5.108;2022-10-22T07:45:48;14.18;;;4.88;;
69912;SDS011;57198;52.082;5.108;2022-10-22T07:48:15;7.30;;;3.13;;
69912;SDS011;57198;52.082;5.108;2022-10-22T07:50:43;9.60;;;2.78;;
69912;SDS011;57198;52.082;5.108;2022-10-22T07:53:10;9.30;;;2.67;;
69912;SDS011;57198;52.082;5.108;2022-10-22T07:55:37;10.37;;;2.83;;
69912;SDS011;57198;52.082;5.108;2022-10-22T07:58:04;9.25;;;2.65;;
69912;SDS011;57198;52.082;5.108;2022-10-22T08:00:32;8.45;;;2.47;;
69912;SDS011;57198;52.082;5.108;2022-10-22T08:02:59;8.88;;;2.53;;
69912;SDS011;57198;52.082;5.108;2022-10-22T08:05:26;10.05;;;2.35;;
69912;SDS011;57198;52.082;5.108;2022-10-22T08:07:54;9.07;;;3.80;;
69912;SDS011;57198;52.082;5.108;2022-10-22T08:10:21;9.00;;;2.03;;
69912;SDS011;57198;52.082;5.108;2022-10-22T08:12:48;9.23;;;2.85;;
69912;SDS011;57198;52.082;5.108;2022-10-22T08:15:16;10.75;;;3.22;;
69912;SDS011;57198;52.082;5.108;2022-10-22T08:17:43;6.90;;;2.35;;
69912;SDS011;57198;52.082;5.108;2022-10-22T08:20:10;7.67;;;2.20;;
69912;SDS011;57198;52.082;5.108;2022-10-22T08:22:37;10.85;;;2.47;;
69912;SDS011;57198;52.082;5.108;2022-10-22T08:25:05;7.72;;;2.40;;
69912;SDS011;57198;52.082;5.108;2022-10-22T08:27:32;7.40;;;2.85;;
69912;SDS011;57198;52.082;5.108;2022-10-22T08:30:00;5.20;;;2.30;;
69912;SDS011;57198;52.082;5.108;2022-10-22T08:32:27;8.07;;;2.10;;
69912;SDS011;57198;52.082;5.108;2022-10-22T08:34:54;6.30;;;3.22;;
69912;SDS011;57198;52.082;5.108;2022-10-22T08:37:22;8.90;;;2.15;;
69912;SDS011;57198;52.082;5.108;2022-10-22T08:39:49;5.55;;;2.03;;
69912;SDS011;57198;52.082;5.108;2022-10-22T08:45:07;8.13;;;2.57;;
69912;SDS011;57198;52.082;5.108;2022-10-22T08:50:33;8.68;;;2.45;;
69912;SDS011;57198;52.082;5.108;2022-10-22T08:53:02;5.97;;;2.78;;
69912;SDS011;57198;52.082;5.108;2022-10-22T08:55:30;7.18;;;2.42;;
69912;SDS011;57198;52.082;5.108;2022-10-22T08:58:46;6.17;;;2.47;;
69912;SDS011;57198;52.082;5.108;2022-10-22T09:01:00;11.57;;;2.95;;
69912;SDS011;57198;52.082;5.108;2022-10-22T09:06:10;7.35;;;2.15;;
69912;SDS011;57198;52.082;5.108;2022-10-22T09:08:39;9.30;;;2.20;;
69912;SDS011;57198;52.082;5.108;2022-10-22T09:13:35;6.95;;;2.42;;
69912;SDS011;57198;52.082;5.108;2022-10-22T09:16:19;8.57;;;2.83;;
69912;SDS011;57198;52.082;5.108;2022-10-22T09:21:42;10.45;;;2.83;;
69912;SDS011;57198;52.082;5.108;2022-10-22T09:24:13;9.70;;;2.00;;
69912;SDS011;57198;52.082;5.108;2022-10-22T09:26:43;4.53;;;1.33;;
69912;SDS011;57198;52.082;5.108;2022-10-22T09:29:16;8.02;;;3.00;;
69912;SDS011;57198;52.082;5.108;2022-10-22T09:31:45;8.00;;;1.67;;
69912;SDS011;57198;52.082;5.108;2022-10-22T09:34:22;8.40;;;2.35;;
69912;SDS011;57198;52.082;5.108;2022-10-22T09:36:59;8.40;;;2.20;;
69912;SDS011;57198;52.082;5.108;2022-10-22T09:39:28;6.25;;;1.83;;
69912;SDS011;57198;52.082;5.108;2022-10-22T09:41:58;8.43;;;1.77;;
69912;SDS011;57198;52.082;5.108;2022-10-22T09:44:25;6.90;;;2.42;;
69912;SDS011;57198;52.082;5.108;2022-10-22T09:46:52;8.30;;;2.50;;
69912;SDS011;57198;52.082;5.108;2022-10-22T09:49:20;6.20;;;1.70;;
69912;SDS011;57198;52.082;5.108;2022-10-22T09:51:58;7.15;;;2.08;;
69912;SDS011;57198;52.082;5.108;2022-10-22T09:57:03;8.32;;;2.33;;
69912;SDS011;57198;52.082;5.108;2022-10-22T09:59:32;6.63;;;1.75;;
69912;SDS011;57198;52.082;5.108;2022-10-22T10:02:10;7.37;;;1.80;;
69912;SDS011;57198;52.082;5.108;2022-10-22T10:05:00;9.73;;;1.92;;
69912;SDS011;57198;52.082;5.108;2022-10-22T10:07:29;9.43;;;2.72;;
69912;SDS011;57198;52.082;5.108;2022-10-22T10:09:57;5.10;;;2.13;;
69912;SDS011;57198;52.082;5.108;2022-10-22T10:22:59;8.25;;;1.35;;
69912;SDS011;57198;52.082;5.108;2022-10-22T10:25:50;6.88;;;1.65;;
69912;SDS011;57198;52.082;5.108;2022-10-22T10:31:02;8.23;;;2.63;;
69912;SDS011;57198;52.082;5.108;2022-10-22T10:36:01;8.85;;;2.17;;
69912;SDS011;57198;52.082;5.108;2022-10-22T10:38:52;6.38;;;1.90;;
69912;SDS011;57198;52.082;5.108;2022-10-22T10:41:26;10.73;;;3.37;;
69912;SDS011;57198;52.082;5.108;2022-10-22T10:46:37;5.68;;;2.03;;
69912;SDS011;57198;52.082;5.108;2022-10-22T10:49:12;9.25;;;2.65;;
69912;SDS011;57198;52.082;5.108;2022-10-22T10:56:50;4.93;;;1.58;;
69912;SDS011;57198;52.082;5.108;2022-10-22T11:07:12;8.63;;;1.63;;
69912;SDS011;57198;52.082;5.108;2022-10-22T11:10:04;8.02;;;2.28;;
69912;SDS011;57198;52.082;5.108;2022-10-22T11:12:37;8.27;;;2.05;;
69912;SDS011;57198;52.082;5.108;2022-10-22T11:15:06;5.50;;;1.50;;
69912;SDS011;57198;52.082;5.108;2022-10-22T11:17:37;9.50;;;2.10;;
69912;SDS011;57198;52.082;5.108;2022-10-22T11:20:15;4.87;;;1.83;;
69912;SDS011;57198;52.082;5.108;2022-10-22T11:22:46;10.20;;;1.70;;
69912;SDS011;57198;52.082;5.108;2022-10-22T11:25:39;9.07;;;1.52;;
69912;SDS011;57198;52.082;5.108;2022-10-22T11:30:40;5.13;;;1.20;;
69912;SDS011;57198;52.082;5.108;2022-10-22T11:33:10;7.30;;;1.53;;
69912;SDS011;57198;52.082;5.108;2022-10-22T11:35:43;9.18;;;2.13;;
69912;SDS011;57198;52.082;5.108;2022-10-22T11:38:12;6.30;;;2.15;;
69912;SDS011;57198;52.082;5.108;2022-10-22T11:40:47;9.93;;;2.28;;
69912;SDS011;57198;52.082;5.108;2022-10-22T11:43:27;7.20;;;2.28;;
69912;SDS011;57198;52.082;5.108;2022-10-22T11:46:34;5.00;;;1.87;;
69912;SDS011;57198;52.082;5.108;2022-10-22T11:49:02;7.82;;;2.08;;
69912;SDS011;57198;52.082;5.108;2022-10-22T11:51:34;8.45;;;1.77;;
69912;SDS011;57198;52.082;5.108;2022-10-22T11:54:07;5.18;;;1.50;;
69912;SDS011;57198;52.082;5.108;2022-10-22T11:56:51;12.30;;;2.05;;
69912;SDS011;57198;52.082;5.108;2022-10-22T11:59:38;6.77;;;1.80;;
69912;SDS011;57198;52.082;5.108;2022-10-22T12:04:53;6.97;;;1.52;;
69912;SDS011;57198;52.082;5.108;2022-10-22T12:09:54;11.02;;;2.58;;
69912;SDS011;57198;52.082;5.108;2022-10-22T12:12:21;8.93;;;2.03;;
69912;SDS011;57198;52.082;5.108;2022-10-22T12:14:55;7.50;;;2.17;;
69912;SDS011;57198;52.082;5.108;2022-10-22T12:17:23;9.40;;;2.88;;
69912;SDS011;57198;52.082;5.108;2022-10-22T12:20:04;7.30;;;2.60;;
69912;SDS011;57198;52.082;5.108;2022-10-22T12:22:33;7.32;;;2.47;;
69912;SDS011;57198;52.082;5.108;2022-10-22T12:25:15;10.10;;;2.43;;
69912;SDS011;57198;52.082;5.108;2022-10-22T12:27:43;11.73;;;2.35;;
69912;SDS011;57198;52.082;5.108;2022-10-22T12:32:44;7.95;;;2.83;;
69912;SDS011;57198;52.082;5.108;2022-10-22T12:35:15;10.10;;;2.22;;
69912;SDS011;57198;52.082;5.108;2022-10-22T12:37:43;7.73;;;2.33;;
69912;SDS011;57198;52.082;5.108;2022-10-22T12:40:18;8.43;;;2.45;;
69912;SDS011;57198;52.082;5.108;2022-10-22T12:42:50;7.05;;;1.77;;
69912;SDS011;57198;52.082;5.108;2022-10-22T12:45:18;9.93;;;2.03;;
69912;SDS011;57198;52.082;5.108;2022-10-22T12:47:49;10.00;;;2.15;;
69912;SDS011;57198;52.082;5.108;2022-10-22T12:50:18;8.77;;;2.67;;
69912;SDS011;57198;52.082;5.108;2022-10-22T12:52:46;9.77;;;2.53;;
69912;SDS011;57198;52.082;5.108;2022-10-22T12:55:17;13.40;;;2.00;;
69912;SDS011;57198;52.082;5.108;2022-10-22T12:57:46;8.85;;;2.38;;
69912;SDS011;57198;52.082;5.108;2022-10-22T13:00:21;11.73;;;2.55;;
69912;SDS011;57198;52.082;5.108;2022-10-22T13:02:49;8.20;;;2.40;;
69912;SDS011;57198;52.082;5.108;2022-10-22T13:05:20;8.27;;;2.33;;
69912;SDS011;57198;52.082;5.108;2022-10-22T13:07:49;11.50;;;2.45;;
69912;SDS011;57198;52.082;5.108;2022-10-22T13:10:29;10.77;;;2.58;;
69912;SDS011;57198;52.082;5.108;2022-10-22T13:12:57;9.35;;;2.35;;
69912;SDS011;57198;52.082;5.108;2022-10-22T13:18:03;11.90;;;2.13;;
69912;SDS011;57198;52.082;5.108;2022-10-22T13:20:31;8.48;;;2.22;;
69912;SDS011;57198;52.082;5.108;2022-10-22T13:23:03;12.27;;;2.80;;
69912;SDS011;57198;52.082;5.108;2022-10-22T13:25:32;10.68;;;2.40;;
69912;SDS011;57198;52.082;5.108;2022-10-22T13:30:28;9.23;;;2.70;;
69912;SDS011;57198;52.082;5.108;2022-10-22T13:32:58;14.30;;;2.42;;
69912;SDS011;57198;52.082;5.108;2022-10-22T13:35:26;10.05;;;2.65;;
69912;SDS011;57198;52.082;5.108;2022-10-22T13:37:54;11.98;;;2.50;;
69912;SDS011;57198;52.082;5.108;2022-10-22T13:40:21;10.90;;;2.77;;
69912;SDS011;57198;52.082;5.108;2022-10-22T13:42:48;12.88;;;2.55;;
69912;SDS011;57198;52.082;5.108;2022-10-22T13:45:16;10.52;;;2.75;;
69912;SDS011;57198;52.082;5.108;2022-10-22T13:47:44;11.32;;;2.40;;
69912;SDS011;57198;52.082;5.108;2022-10-22T13:50:13;13.20;;;2.92;;
69912;SDS011;57198;52.082;5.108;2022-10-22T13:52:42;12.87;;;2.67;;
69912;SDS011;57198;52.082;5.108;2022-10-22T13:55:11;11.55;;;3.00;;
69912;SDS011;57198;52.082;5.108;2022-10-22T13:57:39;8.50;;;2.95;;
69912;SDS011;57198;52.082;5.108;2022-10-22T14:00:07;11.20;;;2.40;;
69912;SDS011;57198;52.082;5.108;2022-10-22T14:02:37;13.05;;;2.70;;
69912;SDS011;57198;52.082;5.108;2022-10-22T14:05:05;11.10;;;2.47;;
69912;SDS011;57198;52.082;5.108;2022-10-22T14:07:35;7.95;;;2.05;;
69912;SDS011;57198;52.082;5.108;2022-10-22T14:10:05;9.32;;;2.40;;
69912;SDS011;57198;52.082;5.108;2022-10-22T14:12:32;7.72;;;2.08;;
69912;SDS011;57198;52.082;5.108;2022-10-22T14:15:00;9.85;;;2.10;;
69912;SDS011;57198;52.082;5.108;2022-10-22T14:17:27;6.53;;;2.00;;
69912;SDS011;57198;52.082;5.108;2022-10-22T14:19:54;9.32;;;2.33;;
69912;SDS011;57198;52.082;5.108;2022-10-22T14:22:21;13.13;;;2.53;;
69912;SDS011;57198;52.082;5.108;2022-10-22T14:24:51;7.82;;;2.20;;
69912;SDS011;57198;52.082;5.108;2022-10-22T14:27:19;11.90;;;2.28;;
69912;SDS011;57198;52.082;5.108;2022-10-22T14:29:46;8.57;;;2.00;;
69912;SDS011;57198;52.082;5.108;2022-10-22T14:32:15;8.95;;;2.20;;
69912;SDS011;57198;52.082;5.108;2022-10-22T14:34:45;8.55;;;2.08;;
69912;SDS011;57198;52.082;5.108;2022-10-22T14:37:17;8.40;;;2.20;;
69912;SDS011;57198;52.082;5.108;2022-10-22T14:39:45;13.07;;;3.40;;
69912;SDS011;57198;52.082;5.108;2022-10-22T14:42:17;10.83;;;1.90;;
69912;SDS011;57198;52.082;5.108;2022-10-22T14:44:45;12.10;;;2.63;;
69912;SDS011;57198;52.082;5.108;2022-10-22T14:47:12;9.32;;;1.95;;
69912;SDS011;57198;52.082;5.108;2022-10-22T14:49:40;14.50;;;2.60;;
69912;SDS011;57198;52.082;5.108;2022-10-22T14:52:07;10.10;;;2.67;;
69912;SDS011;57198;52.082;5.108;2022-10-22T14:54:39;10.23;;;2.43;;
69912;SDS011;57198;52.082;5.108;2022-10-22T14:57:06;8.85;;;2.08;;
69912;SDS011;57198;52.082;5.108;2022-10-22T14:59:36;13.40;;;2.60;;
69912;SDS011;57198;52.082;5.108;2022-10-22T15:02:03;11.88;;;2.33;;
69912;SDS011;57198;52.082;5.108;2022-10-22T15:04:31;13.98;;;2.40;;
69912;SDS011;57198;52.082;5.108;2022-10-22T15:06:58;8.77;;;2.03;;
69912;SDS011;57198;52.082;5.108;2022-10-22T15:09:25;7.88;;;2.45;;
69912;SDS011;57198;52.082;5.108;2022-10-22T15:11:53;13.13;;;2.55;;
69912;SDS011;57198;52.082;5.108;2022-10-22T15:14:20;9.57;;;2.65;;
69912;SDS011;57198;52.082;5.108;2022-10-22T15:16:47;9.98;;;2.70;;
69912;SDS011;57198;52.082;5.108;2022-10-22T15:19:14;9.27;;;2.83;;
69912;SDS011;57198;52.082;5.108;2022-10-22T15:21:42;9.00;;;2.35;;
69912;SDS011;57198;52.082;5.108;2022-10-22T15:24:09;10.65;;;2.60;;
69912;SDS011;57198;52.082;5.108;2022-10-22T15:26:36;7.10;;;2.28;;
69912;SDS011;57198;52.082;5.108;2022-10-22T15:29:04;10.13;;;2.60;;
69912;SDS011;57198;52.082;5.108;2022-10-22T15:34:32;9.48;;;1.95;;
69912;SDS011;57198;52.082;5.108;2022-10-22T15:37:01;11.90;;;2.22;;
69912;SDS011;57198;52.082;5.108;2022-10-22T15:39:28;8.55;;;2.05;;
69912;SDS011;57198;52.082;5.108;2022-10-22T15:41:56;11.68;;;1.77;;
69912;SDS011;57198;52.082;5.108;2022-10-22T15:44:25;10.97;;;2.40;;
69912;SDS011;57198;52.082;5.108;2022-10-22T15:46:52;9.20;;;2.60;;
69912;SDS011;57198;52.082;5.108;2022-10-22T15:49:23;9.40;;;2.10;;
69912;SDS011;57198;52.082;5.108;2022-10-22T15:51:51;9.32;;;1.95;;
69912;SDS011;57198;52.082;5.108;2022-10-22T15:54:20;6.82;;;2.28;;
69912;SDS011;57198;52.082;5.108;2022-10-22T15:56:47;9.73;;;1.90;;
69912;SDS011;57198;52.082;5.108;2022-10-22T15:59:15;10.30;;;2.53;;
69912;SDS011;57198;52.082;5.108;2022-10-22T16:01:43;10.27;;;2.67;;
69912;SDS011;57198;52.082;5.108;2022-10-22T16:04:10;14.38;;;3.30;;
69912;SDS011;57198;52.082;5.108;2022-10-22T16:06:39;13.65;;;3.10;;
69912;SDS011;57198;52.082;5.108;2022-10-22T16:09:07;11.53;;;2.40;;
69912;SDS011;57198;52.082;5.108;2022-10-22T16:11:35;8.27;;;2.40;;
69912;SDS011;57198;52.082;5.108;2022-10-22T16:14:02;12.20;;;3.20;;
69912;SDS011;57198;52.082;5.108;2022-10-22T16:16:31;8.10;;;2.40;;
69912;SDS011;57198;52.082;5.108;2022-10-22T16:18:59;11.07;;;2.40;;
69912;SDS011;57198;52.082;5.108;2022-10-22T16:21:27;10.27;;;2.43;;
69912;SDS011;57198;52.082;5.108;2022-10-22T16:23:54;7.90;;;2.65;;
69912;SDS011;57198;52.082;5.108;2022-10-22T16:26:21;11.57;;;2.70;;
69912;SDS011;57198;52.082;5.108;2022-10-22T16:28:49;11.10;;;2.63;;